Goderich, Canada
Current Conditions -  °F | °C
As of 9:00 PM on Saturday 25 Oct 2014 (Local Time) from CYXU Reporting Station
Few Clouds Few Clouds  
Wind Chill: 54°   Ceiling: Unl
Heat Index: 54°   Visibility: 15mi
Dew Point: 41°   Wind: 9mph
Humidity: 62%   Direction: 310°NW
Pressure: 29.7"   Gusts: NA
Location:  43.74°N, 81.71°W
Report Text: CYXU 260100Z 31008KT 15SM FEW040 12/05 A2970 RMK SC1 SC TR SLP061
Loading
Personal Weather Stations






























Interactive Weather Map
Tropical Storm Tracking
New forecast layout! Learn more

10-Day Weather Forecast

Advertisements
Track Severe Weather on mobile